createdAt,value
2023-12-24T00:01:35.980Z,1.42
2023-12-24T00:04:37.562Z,1.40
2023-12-24T00:07:39.153Z,1.30
2023-12-24T00:10:41.111Z,1.48
2023-12-24T00:13:42.700Z,1.27
2023-12-24T00:16:44.425Z,1.48
2023-12-24T00:19:46.081Z,1.40
2023-12-24T00:22:47.676Z,1.40
2023-12-24T00:25:49.242Z,1.17
2023-12-24T00:28:52.282Z,1.63
2023-12-24T00:31:53.960Z,2.03
2023-12-24T00:34:55.662Z,1.45
2023-12-24T00:37:57.472Z,1.50
2023-12-24T00:40:59.088Z,1.40
2023-12-24T00:44:00.783Z,1.55
2023-12-24T00:47:02.440Z,1.55
2023-12-24T00:50:04.052Z,1.38
2023-12-24T00:53:05.792Z,1.52
2023-12-24T00:56:07.414Z,2.00
2023-12-24T00:59:09.052Z,1.88
2023-12-24T01:02:10.743Z,1.83
2023-12-24T01:05:12.442Z,1.70
2023-12-24T01:08:14.656Z,1.90
2023-12-24T01:11:16.371Z,1.92
2023-12-24T01:14:18.021Z,2.33
2023-12-24T01:17:19.764Z,2.30
2023-12-24T01:20:22.257Z,2.38
2023-12-24T01:23:23.902Z,2.30
2023-12-24T01:26:25.524Z,2.08
2023-12-24T01:29:27.233Z,2.15
2023-12-24T01:32:28.925Z,2.40
2023-12-24T01:35:30.573Z,2.33
2023-12-24T01:38:32.200Z,2.25
2023-12-24T01:41:34.031Z,2.70
2023-12-24T01:44:35.824Z,2.63
2023-12-24T01:47:37.585Z,2.42
2023-12-24T01:50:39.477Z,2.40
2023-12-24T01:53:41.107Z,2.40
2023-12-24T01:56:42.801Z,2.08
2023-12-24T01:59:44.414Z,2.72
2023-12-24T02:02:46.105Z,2.45
2023-12-24T02:05:47.775Z,2.35
2023-12-24T02:08:49.488Z,2.45
2023-12-24T02:11:51.441Z,2.35
2023-12-24T02:14:52.998Z,2.15
2023-12-24T02:17:54.802Z,2.05
2023-12-24T02:20:58.067Z,1.90
2023-12-24T02:23:59.669Z,1.98
2023-12-24T02:27:01.264Z,1.67
2023-12-24T02:30:02.858Z,1.77
2023-12-24T02:33:04.623Z,1.80
2023-12-24T02:36:06.279Z,1.85
2023-12-24T02:39:07.888Z,1.50
2023-12-24T02:42:09.486Z,1.55
2023-12-24T02:45:11.143Z,1.40
2023-12-24T02:48:12.928Z,1.38
2023-12-24T02:51:14.616Z,1.45
2023-12-24T02:54:16.191Z,1.63
2023-12-24T02:57:17.839Z,1.45
2023-12-24T03:00:19.500Z,1.45
2023-12-24T03:03:21.095Z,1.30
2023-12-24T03:06:22.865Z,1.27
2023-12-24T03:09:24.598Z,1.00
2023-12-24T03:12:26.273Z,1.10
2023-12-24T03:15:27.926Z,1.17
2023-12-24T03:18:29.656Z,1.20
2023-12-24T03:21:31.340Z,1.20
2023-12-24T03:24:32.959Z,1.08
2023-12-24T03:27:34.537Z,1.10
2023-12-24T03:30:36.272Z,1.10
2023-12-24T03:33:38.024Z,0.85
2023-12-24T03:36:39.646Z,1.10
2023-12-24T03:39:41.209Z,1.00
2023-12-24T03:42:42.776Z,1.02
2023-12-24T03:45:44.990Z,0.80
2023-12-24T03:48:46.650Z,0.90
2023-12-24T03:51:48.736Z,1.00
2023-12-24T03:54:50.341Z,1.10
2023-12-24T03:57:51.939Z,1.05
2023-12-24T04:00:53.630Z,1.05
2023-12-24T04:03:55.395Z,1.00
2023-12-24T04:06:56.971Z,1.15
2023-12-24T04:09:58.564Z,1.00
2023-12-24T04:13:00.194Z,1.27
2023-12-24T04:16:01.900Z,0.90
2023-12-24T04:19:03.587Z,1.02
2023-12-24T04:22:05.351Z,0.90
2023-12-24T04:25:06.900Z,0.93
2023-12-24T04:28:08.477Z,0.85
2023-12-24T04:31:10.042Z,1.15
2023-12-24T04:34:11.853Z,0.95
2023-12-24T04:37:13.528Z,0.80
2023-12-24T04:40:15.324Z,0.80
2023-12-24T04:43:17.070Z,1.10
2023-12-24T04:46:18.682Z,0.88
2023-12-24T04:49:20.338Z,0.90
2023-12-24T04:52:21.938Z,0.90
2023-12-24T04:55:23.518Z,1.40
2023-12-24T04:58:25.128Z,0.80
2023-12-24T05:01:26.713Z,0.80
2023-12-24T05:04:29.532Z,1.00
2023-12-24T05:07:31.161Z,0.80
2023-12-24T05:10:32.924Z,0.98
2023-12-24T05:13:34.505Z,0.85
2023-12-24T05:16:36.115Z,0.70
2023-12-24T05:19:37.713Z,0.80
2023-12-24T05:22:39.309Z,0.85
2023-12-24T05:25:40.857Z,0.60
2023-12-24T05:28:42.436Z,0.77
2023-12-24T05:31:44.006Z,0.73
2023-12-24T05:34:46.999Z,0.80
2023-12-24T05:37:48.573Z,0.60
2023-12-24T05:40:50.156Z,0.50
2023-12-24T05:43:51.745Z,0.80
2023-12-24T05:46:53.300Z,0.57
2023-12-24T05:49:54.832Z,0.60
2023-12-24T05:52:56.486Z,0.60
2023-12-24T05:55:58.129Z,0.40
2023-12-24T05:58:59.736Z,0.63
2023-12-24T06:02:03.388Z,0.68
2023-12-24T06:05:05.371Z,0.50
2023-12-24T06:08:07.380Z,0.52
2023-12-24T06:11:09.003Z,0.40
2023-12-24T06:14:10.685Z,0.60
2023-12-24T06:17:12.448Z,0.60
2023-12-24T06:20:14.151Z,0.40
2023-12-24T06:23:15.820Z,0.43
2023-12-24T06:26:17.486Z,0.60
2023-12-24T06:29:19.177Z,0.40
2023-12-24T06:32:20.814Z,0.40
2023-12-24T06:35:23.704Z,0.43
2023-12-24T06:38:26.847Z,0.50
2023-12-24T06:41:28.476Z,0.50
2023-12-24T06:44:30.116Z,0.50
2023-12-24T06:47:31.778Z,0.60
2023-12-24T06:50:33.502Z,0.50
2023-12-24T06:53:35.133Z,0.57
2023-12-24T06:56:36.812Z,0.50
2023-12-24T06:59:38.499Z,0.50
2023-12-24T07:02:40.252Z,0.68
2023-12-24T07:05:43.195Z,0.60
2023-12-24T07:08:44.940Z,0.65
2023-12-24T07:11:46.494Z,0.50
2023-12-24T07:14:48.065Z,0.60
2023-12-24T07:17:49.757Z,0.50
2023-12-24T07:20:51.408Z,0.40
2023-12-24T07:23:53.071Z,0.50
2023-12-24T07:26:54.602Z,0.68
2023-12-24T07:29:56.374Z,0.50
2023-12-24T07:32:58.911Z,0.50
2023-12-24T07:36:00.844Z,0.40
2023-12-24T07:39:02.395Z,0.40
2023-12-24T07:42:03.958Z,0.60
2023-12-24T07:45:05.584Z,0.60
2023-12-24T07:48:09.734Z,0.50
2023-12-24T07:51:11.395Z,0.60
2023-12-24T07:54:12.997Z,0.30
2023-12-24T07:57:14.533Z,0.52
2023-12-24T08:00:18.614Z,0.40
2023-12-24T08:03:20.669Z,0.40
2023-12-24T08:06:28.265Z,0.40
2023-12-24T08:09:31.176Z,0.43
2023-12-24T08:12:32.737Z,0.40
2023-12-24T08:15:34.276Z,0.40
2023-12-24T08:18:38.458Z,0.50
2023-12-24T08:21:40.132Z,0.40
2023-12-24T08:24:41.692Z,0.40
2023-12-24T08:27:43.268Z,0.40
2023-12-24T08:30:44.889Z,0.45
2023-12-24T08:33:46.545Z,0.38
2023-12-24T08:36:48.264Z,0.50
2023-12-24T08:39:49.798Z,0.40
2023-12-24T08:42:51.897Z,0.30
2023-12-24T08:45:53.624Z,0.50
2023-12-24T08:48:55.404Z,0.40
2023-12-24T08:51:57.157Z,0.50
2023-12-24T08:54:58.741Z,0.40
2023-12-24T08:58:00.341Z,0.40
2023-12-24T09:01:01.969Z,0.30
2023-12-24T09:04:04.585Z,0.30
2023-12-24T09:07:06.147Z,0.40
2023-12-24T09:10:07.719Z,0.30
2023-12-24T09:13:09.917Z,0.50
2023-12-24T09:16:11.494Z,0.30
2023-12-24T09:19:13.162Z,0.32
2023-12-24T09:22:14.842Z,0.25
2023-12-24T09:25:16.435Z,0.28
2023-12-24T09:28:18.066Z,0.30
2023-12-24T09:31:19.658Z,0.30
2023-12-24T09:34:21.613Z,0.40
2023-12-24T09:37:23.171Z,0.40
2023-12-24T09:40:24.783Z,0.40
2023-12-24T09:43:26.375Z,0.30
2023-12-24T09:46:28.028Z,0.30
2023-12-24T09:49:29.702Z,0.40
2023-12-24T09:52:34.414Z,0.40
2023-12-24T09:55:36.025Z,0.30
2023-12-24T09:58:37.586Z,0.32
2023-12-24T10:01:39.202Z,0.30
2023-12-24T10:04:40.897Z,0.30
2023-12-24T10:07:46.688Z,0.40
2023-12-24T10:10:48.306Z,0.40
2023-12-24T10:13:50.022Z,0.40
2023-12-24T10:16:51.556Z,0.50
2023-12-24T10:19:53.284Z,0.50
2023-12-24T10:22:55.109Z,0.70
2023-12-24T10:25:56.761Z,0.30
2023-12-24T10:29:04.148Z,0.50
2023-12-24T10:32:13.326Z,0.55
2023-12-24T10:35:16.174Z,0.40
2023-12-24T10:38:17.825Z,0.40
2023-12-24T10:41:19.435Z,0.80
2023-12-24T10:44:21.535Z,0.60
2023-12-24T10:47:24.329Z,0.65
2023-12-24T10:50:25.987Z,0.60
2023-12-24T10:53:27.691Z,0.80
2023-12-24T10:56:29.354Z,0.75
2023-12-24T10:59:30.930Z,0.60
2023-12-24T11:02:32.569Z,0.47
2023-12-24T11:05:34.245Z,0.60
2023-12-24T11:08:36.007Z,0.60
2023-12-24T11:11:37.696Z,0.80
2023-12-24T11:14:39.328Z,0.60
2023-12-24T11:17:42.348Z,0.70
2023-12-24T11:20:44.092Z,0.73
2023-12-24T11:23:45.771Z,1.60
2023-12-24T11:26:49.804Z,0.60
2023-12-24T11:29:53.651Z,0.73
2023-12-24T11:32:55.533Z,1.00
2023-12-24T11:35:57.626Z,0.70
2023-12-24T11:38:59.498Z,1.00
2023-12-24T11:42:01.215Z,0.90
2023-12-24T11:45:02.827Z,0.90
2023-12-24T11:48:04.516Z,0.82
2023-12-24T11:51:06.535Z,0.70
2023-12-24T11:54:08.127Z,0.90
2023-12-24T11:57:11.056Z,0.90
2023-12-24T12:00:13.226Z,1.10
2023-12-24T12:03:16.411Z,0.75
2023-12-24T12:06:19.909Z,1.40
2023-12-24T12:09:21.746Z,0.80
2023-12-24T12:12:23.296Z,0.70
2023-12-24T12:15:27.678Z,0.90
2023-12-24T12:18:29.246Z,0.70
2023-12-24T12:21:30.945Z,1.00
2023-12-24T12:24:32.536Z,0.75
2023-12-24T12:27:34.458Z,0.82
2023-12-24T12:30:36.144Z,0.88
2023-12-24T12:33:37.811Z,1.02
2023-12-24T12:36:39.412Z,1.20
2023-12-24T12:39:41.009Z,1.27
2023-12-24T12:42:44.090Z,1.08
2023-12-24T12:45:46.990Z,1.10
2023-12-24T12:48:49.656Z,1.35
2023-12-24T12:51:53.474Z,1.00
2023-12-24T12:54:55.204Z,1.35
2023-12-24T12:57:57.494Z,1.30
2023-12-24T13:00:59.161Z,1.33
2023-12-24T13:04:00.897Z,1.13
2023-12-24T13:07:11.552Z,1.00
2023-12-24T13:10:14.226Z,1.17
2023-12-24T13:13:15.834Z,1.13
2023-12-24T13:16:17.454Z,1.02
2023-12-24T13:19:19.243Z,1.15
2023-12-24T13:22:20.857Z,1.17
2023-12-24T13:25:24.895Z,1.20
2023-12-24T13:28:26.515Z,1.20
2023-12-24T13:31:28.070Z,1.27
2023-12-24T13:34:29.662Z,1.40
2023-12-24T13:37:31.228Z,1.20
2023-12-24T13:40:32.790Z,1.30
2023-12-24T13:43:34.316Z,1.13
2023-12-24T13:46:35.879Z,1.40
2023-12-24T13:49:37.505Z,1.73
2023-12-24T13:52:39.158Z,1.42
2023-12-24T13:55:40.781Z,1.60
2023-12-24T13:58:42.390Z,1.52
2023-12-24T14:01:44.065Z,1.58
2023-12-24T14:04:46.279Z,1.40
2023-12-24T14:07:47.912Z,1.45
2023-12-24T14:10:49.485Z,1.40
2023-12-24T14:13:51.255Z,1.65
2023-12-24T14:16:52.907Z,1.80
2023-12-24T14:19:54.556Z,1.60
2023-12-24T14:22:56.290Z,1.63
2023-12-24T14:25:58.860Z,1.45
2023-12-24T14:29:00.481Z,1.50
2023-12-24T14:32:02.897Z,1.60
2023-12-24T14:35:04.659Z,1.30
2023-12-24T14:38:06.593Z,1.60
2023-12-24T14:41:08.321Z,1.45
2023-12-24T14:44:10.424Z,1.52
2023-12-24T14:47:12.174Z,1.40
2023-12-24T14:50:13.841Z,1.40
2023-12-24T14:53:15.458Z,1.17
2023-12-24T14:56:17.113Z,1.00
2023-12-24T14:59:18.830Z,1.23
2023-12-24T15:02:20.672Z,1.35
2023-12-24T15:05:22.316Z,1.60
2023-12-24T15:08:23.975Z,1.20
2023-12-24T15:11:26.712Z,1.40
2023-12-24T15:14:28.315Z,1.25
2023-12-24T15:17:30.003Z,1.00
2023-12-24T15:20:31.666Z,0.93
2023-12-24T15:23:33.512Z,1.10
2023-12-24T15:26:35.149Z,1.20
2023-12-24T15:29:38.384Z,1.10
2023-12-24T15:32:40.680Z,1.00
2023-12-24T15:35:42.818Z,1.08
2023-12-24T15:38:44.431Z,1.10
2023-12-24T15:41:46.207Z,1.48
2023-12-24T15:44:49.111Z,0.80
2023-12-24T15:47:50.953Z,1.02
2023-12-24T15:50:53.291Z,0.90
2023-12-24T15:53:54.929Z,0.90
2023-12-24T15:56:56.660Z,0.73
2023-12-24T15:59:58.378Z,0.90
2023-12-24T16:03:00.036Z,0.90
2023-12-24T16:06:01.793Z,0.88
2023-12-24T16:09:03.701Z,1.10
2023-12-24T16:12:08.795Z,1.30
2023-12-24T16:15:10.430Z,0.88
2023-12-24T16:18:12.165Z,0.80
2023-12-24T16:21:13.810Z,0.80
2023-12-24T16:24:15.379Z,0.73
2023-12-24T16:27:16.956Z,0.90
2023-12-24T16:30:18.533Z,1.00
2023-12-24T16:33:20.270Z,1.00
2023-12-24T16:36:25.606Z,0.60
2023-12-24T16:39:27.388Z,0.70
2023-12-24T16:42:29.056Z,0.70
2023-12-24T16:45:31.998Z,0.70
2023-12-24T16:48:34.784Z,0.70
2023-12-24T16:51:37.098Z,0.75
2023-12-24T16:54:38.717Z,0.75
2023-12-24T16:57:40.268Z,0.80
2023-12-24T17:00:41.900Z,0.80
2023-12-24T17:03:43.543Z,0.60
2023-12-24T17:06:45.363Z,0.68
2023-12-24T17:09:50.715Z,0.80
2023-12-24T17:12:52.481Z,0.60
2023-12-24T17:15:54.160Z,0.70
2023-12-24T17:18:55.847Z,0.65
2023-12-24T17:21:57.502Z,0.80
2023-12-24T17:24:59.172Z,0.70
2023-12-24T17:28:01.624Z,0.73
2023-12-24T17:31:03.178Z,0.70
2023-12-24T17:34:04.951Z,0.70
2023-12-24T17:37:06.974Z,0.63
2023-12-24T17:40:08.554Z,0.70
2023-12-24T17:43:10.138Z,0.85
2023-12-24T17:46:11.725Z,0.50
2023-12-24T17:49:13.425Z,0.60
2023-12-24T17:52:16.589Z,0.60
2023-12-24T17:55:18.210Z,0.63
2023-12-24T17:58:20.791Z,0.80
2023-12-24T18:01:22.475Z,0.90
2023-12-24T18:04:24.059Z,1.13
2023-12-24T18:07:25.666Z,1.00
2023-12-24T18:10:27.222Z,0.90
2023-12-24T18:13:28.988Z,1.15
2023-12-24T18:16:30.788Z,1.50
2023-12-24T18:19:32.513Z,0.68
2023-12-24T18:22:34.597Z,1.00
2023-12-24T18:25:36.211Z,0.60
2023-12-24T18:28:37.799Z,0.50
2023-12-24T18:31:39.409Z,0.80
2023-12-24T18:34:41.165Z,0.77
2023-12-24T18:37:42.883Z,0.60
2023-12-24T18:40:44.416Z,0.88
2023-12-24T18:43:46.099Z,0.70
2023-12-24T18:46:47.676Z,0.70
2023-12-24T18:49:49.289Z,0.57
2023-12-24T18:52:51.116Z,2.03
2023-12-24T18:55:52.919Z,1.17
2023-12-24T18:58:55.284Z,1.20
2023-12-24T19:01:57.061Z,1.08
2023-12-24T19:04:59.114Z,1.00
2023-12-24T19:08:00.893Z,0.60
2023-12-24T19:11:02.509Z,0.93
2023-12-24T19:14:04.239Z,0.90
2023-12-24T19:17:05.883Z,0.93
2023-12-24T19:20:07.524Z,0.70
2023-12-24T19:23:09.360Z,0.70
2023-12-24T19:26:11.234Z,0.90
2023-12-24T19:29:13.664Z,0.85
2023-12-24T19:32:15.716Z,0.60
2023-12-24T19:35:17.398Z,1.00
2023-12-24T19:38:18.975Z,0.80
2023-12-24T19:41:21.515Z,1.10
2023-12-24T19:44:23.165Z,0.90
2023-12-24T19:47:24.884Z,1.10
2023-12-24T19:50:26.563Z,0.90
2023-12-24T19:53:28.254Z,0.90
2023-12-24T19:56:29.862Z,0.85
2023-12-24T19:59:31.579Z,0.75
2023-12-24T20:02:33.305Z,0.70
2023-12-24T20:05:35.238Z,0.90
2023-12-24T20:08:36.933Z,0.90
2023-12-24T20:11:38.649Z,0.73
2023-12-24T20:14:40.400Z,1.10
2023-12-24T20:17:42.263Z,0.90
2023-12-24T20:20:44.210Z,1.77
2023-12-24T20:23:47.077Z,1.10
2023-12-24T20:26:48.738Z,0.90
2023-12-24T20:29:51.919Z,1.50
2023-12-24T20:32:54.075Z,0.88
2023-12-24T20:35:56.007Z,0.65
2023-12-24T20:38:57.851Z,0.80
2023-12-24T20:41:59.464Z,0.80
2023-12-24T20:45:01.133Z,0.70
2023-12-24T20:48:03.074Z,0.68
2023-12-24T20:51:04.749Z,0.70
2023-12-24T20:54:06.950Z,0.95
2023-12-24T20:57:11.571Z,0.75
2023-12-24T21:00:13.141Z,0.75
2023-12-24T21:03:14.874Z,0.85
2023-12-24T21:06:19.013Z,0.70
2023-12-24T21:09:20.750Z,0.75
2023-12-24T21:12:24.358Z,0.75
2023-12-24T21:15:26.029Z,0.70
2023-12-24T21:18:27.885Z,0.70
2023-12-24T21:21:29.615Z,1.15
2023-12-24T21:24:31.156Z,0.80
2023-12-24T21:27:32.814Z,0.70
2023-12-24T21:30:34.646Z,0.70
2023-12-24T21:33:36.412Z,0.60
2023-12-24T21:36:38.065Z,0.70
2023-12-24T21:39:40.013Z,0.80
2023-12-24T21:42:41.570Z,0.93
2023-12-24T21:45:43.191Z,0.60
2023-12-24T21:48:44.923Z,0.63
2023-12-24T21:51:47.509Z,0.60
2023-12-24T21:54:49.249Z,0.77
2023-12-24T21:57:51.163Z,0.75
2023-12-24T22:00:53.154Z,0.68
2023-12-24T22:03:54.876Z,0.50
2023-12-24T22:06:56.445Z,0.60
2023-12-24T22:09:58.155Z,0.50
2023-12-24T22:12:59.829Z,0.70
2023-12-24T22:16:01.375Z,0.60
2023-12-24T22:19:03.727Z,0.60
2023-12-24T22:22:05.741Z,0.70
2023-12-24T22:25:07.426Z,0.57
2023-12-24T22:28:09.234Z,0.60
2023-12-24T22:31:10.938Z,0.50
2023-12-24T22:34:12.693Z,0.57
2023-12-24T22:37:14.342Z,0.50
2023-12-24T22:40:15.944Z,0.50
2023-12-24T22:43:17.485Z,0.40
2023-12-24T22:46:19.018Z,0.50
2023-12-24T22:52:22.150Z,0.60
2023-12-24T22:55:23.735Z,0.60
2023-12-24T22:58:25.291Z,0.50
2023-12-24T23:01:26.856Z,0.40
2023-12-24T23:04:28.468Z,0.52
2023-12-24T23:07:30.108Z,0.50
2023-12-24T23:10:31.678Z,0.60
2023-12-24T23:13:33.261Z,0.40
2023-12-24T23:16:34.903Z,0.60
2023-12-24T23:19:36.629Z,0.50
2023-12-24T23:22:38.260Z,0.50
2023-12-24T23:25:39.865Z,0.50
2023-12-24T23:28:41.444Z,0.50
2023-12-24T23:31:43.065Z,0.50
2023-12-24T23:34:44.670Z,0.50
2023-12-24T23:37:46.195Z,0.50
2023-12-24T23:40:48.138Z,0.50
2023-12-24T23:43:49.720Z,0.50
2023-12-24T23:46:51.318Z,0.50
2023-12-24T23:49:52.881Z,0.55
2023-12-24T23:52:54.429Z,0.60
2023-12-24T23:55:55.969Z,0.55
2023-12-24T23:58:57.518Z,0.60
